Rechercher aéroport 
image banner adimage banner adimage banner ad
image banner ad

8C2 - Sully Muni

Situé à Sully, United States

ICAO - 8C2, IATA -

Données fournies par Airmate  

Information générale

Coordonnées: N41°34'27" W92°50'48"
Élévation : 922 feet MSL.
Variation magnétique : 03° East
Voir autres Aéroports à Iowa

Données opérationnelles

Special qualification required
Heure actuelle UTC:
Heure actuelle locale:
Météo à : KGGI - Grinnell Rgnl ( 18 km )
METAR: KGGI 270515Z AUTO 18004KT 10SM CLR 23/19 A3005 RMK AO2 T02270185
Voir NOTAMs / SUP AIP / TFR affectant cet aéroport [VIEW]
Fréquences de communication: [VIEW]

Pistes:

Identifiant RWYQFULongueur (ft)Largeur (ft)SurfaceLDA (ft)
082130120GRASS
262130120GRASS

Coordonnées de l'aéroport

Adresse: Sully United States

Vue satellite de 8C2